Time;durP1;ratioP1;P1;durP2;ratioP2;P2;SDS_P1;SDS_P2;PMS_P1;PMS_P2;Temp;Humidity;BMP_temperature;BMP_pressure;BME280_temperature;BME280_humidity;BME280_pressure;Samples;Min_cycle;Max_cycle;Signal;HPM_P1;HPM_P2
2023/07/19 00:01:47;;;;;;;6.38;5.88;;;16.80;99.90;;;;;;4882253;28;90301;-32
2023/07/19 00:04:13;;;;;;;9.52;6.60;;;16.80;99.90;;;;;;4882506;28;89466;-33
2023/07/19 00:06:38;;;;;;;6.90;6.18;;;16.80;99.90;;;;;;4882383;28;89906;-40
2023/07/19 00:09:04;;;;;;;6.95;5.85;;;16.80;99.90;;;;;;4882218;28;88521;-39
2023/07/19 00:11:30;;;;;;;8.35;6.93;;;16.80;99.90;;;;;;4870499;28;90484;-38
2023/07/19 00:13:55;;;;;;;6.47;6.00;;;16.70;99.90;;;;;;4864524;28;90815;-35
2023/07/19 00:16:21;;;;;;;6.88;6.18;;;16.70;99.90;;;;;;4864209;28;89716;-36
2023/07/19 00:18:46;;;;;;;6.13;5.57;;;16.80;99.90;;;;;;4882398;28;89507;-40
2023/07/19 00:21:12;;;;;;;6.25;5.60;;;16.80;99.90;;;;;;4870785;28;90419;-32
2023/07/19 00:23:38;;;;;;;7.60;6.35;;;16.80;99.90;;;;;;4862961;28;89676;-35
2023/07/19 00:26:04;;;;;;;6.13;5.50;;;16.80;99.90;;;;;;4864676;28;90645;-36
2023/07/19 00:28:29;;;;;;;6.43;5.75;;;16.80;99.90;;;;;;4866642;28;88470;-33
2023/07/19 00:31:04;;;;;;;6.82;6.22;;;16.70;99.90;;;;;;4882672;28;90756;-33
2023/07/19 00:33:30;;;;;;;8.73;6.13;;;16.80;99.90;;;;;;4879218;28;90651;-36
2023/07/19 00:35:56;;;;;;;7.53;6.20;;;16.70;99.90;;;;;;4882281;28;90852;-35
2023/07/19 00:38:21;;;;;;;8.27;6.35;;;16.70;99.90;;;;;;4881008;28;89616;-34
2023/07/19 00:40:48;;;;;;;10.68;6.43;;;16.70;99.90;;;;;;4882642;28;90864;-43
2023/07/19 00:43:14;;;;;;;10.95;5.95;;;16.70;99.90;;;;;;4881632;28;89736;-32
2023/07/19 00:45:45;;;;;;;6.30;5.70;;;16.70;99.90;;;;;;4882404;28;89298;-31
2023/07/19 00:48:11;;;;;;;11.55;6.55;;;16.80;99.90;;;;;;4880510;28;89568;-38
2023/07/19 00:50:37;;;;;;;7.25;6.07;;;16.80;99.90;;;;;;4881880;28;89895;-37
2023/07/19 00:53:03;;;;;;;8.98;7.15;;;16.80;99.90;;;;;;4881436;28;90307;-35
2023/07/19 00:55:29;;;;;;;7.22;6.28;;;16.80;99.90;;;;;;4881217;28;90249;-33
2023/07/19 00:57:55;;;;;;;7.38;6.68;;;16.70;99.90;;;;;;4880869;28;90436;-42
2023/07/19 01:00:21;;;;;;;12.48;7.03;;;16.70;99.90;;;;;;4881576;28;89956;-34
2023/07/19 01:02:48;;;;;;;9.23;7.70;;;16.60;99.90;;;;;;4864556;28;89386;-35
2023/07/19 01:05:13;;;;;;;7.47;6.75;;;16.60;99.90;;;;;;4881709;28;89565;-35
2023/07/19 01:07:39;;;;;;;8.95;8.07;;;16.60;99.90;;;;;;4881935;28;89835;-33
2023/07/19 01:10:06;;;;;;;9.77;6.63;;;16.60;99.90;;;;;;4882519;28;90567;-41
2023/07/19 01:12:32;;;;;;;31.20;7.63;;;16.60;99.90;;;;;;4880667;28;89995;-35
2023/07/19 01:14:57;;;;;;;8.27;7.43;;;16.60;99.90;;;;;;4881259;28;90743;-34
2023/07/19 01:17:23;;;;;;;13.15;7.05;;;16.60;99.90;;;;;;4881612;28;89682;-34
2023/07/19 01:19:49;;;;;;;7.20;6.55;;;16.60;99.90;;;;;;4881364;28;90193;-39
2023/07/19 01:22:15;;;;;;;7.05;6.18;;;16.60;99.90;;;;;;4880580;28;90758;-39
2023/07/19 01:24:41;;;;;;;7.35;6.68;;;16.60;99.90;;;;;;4881622;28;91651;-32
2023/07/19 01:27:06;;;;;;;7.38;6.30;;;16.60;99.90;;;;;;4881577;28;88694;-36
2023/07/19 01:29:32;;;;;;;7.72;7.00;;;16.70;99.90;;;;;;4882809;28;90030;-34
2023/07/19 01:31:58;;;;;;;7.80;6.75;;;16.70;99.90;;;;;;4880283;28;89492;-34
2023/07/19 01:34:23;;;;;;;9.35;6.20;;;16.60;99.90;;;;;;4881975;28;89544;-34
2023/07/19 01:36:49;;;;;;;10.20;6.57;;;16.70;99.90;;;;;;4881111;28;89614;-31
2023/07/19 01:39:15;;;;;;;9.10;6.85;;;16.60;99.90;;;;;;4880817;28;90025;-34
2023/07/19 01:41:40;;;;;;;10.20;7.43;;;16.60;99.90;;;;;;4881261;28;89325;-32
2023/07/19 01:44:06;;;;;;;7.53;6.70;;;16.60;99.90;;;;;;4880450;28;89492;-35
2023/07/19 01:46:31;;;;;;;11.27;7.13;;;16.60;99.90;;;;;;4881216;28;88954;-32
2023/07/19 01:48:57;;;;;;;6.90;5.20;;;16.60;99.90;;;;;;4880979;28;89942;-34
2023/07/19 01:51:23;;;;;;;6.40;5.65;;;16.60;99.90;;;;;;4880719;28;89630;-33
2023/07/19 01:53:48;;;;;;;8.80;5.72;;;16.60;99.90;;;;;;4881850;28;89341;-34
2023/07/19 01:56:14;;;;;;;5.53;5.13;;;16.60;99.90;;;;;;4881306;28;89439;-35
2023/07/19 01:58:40;;;;;;;8.43;6.88;;;16.60;99.90;;;;;;4881279;28;90696;-32
2023/07/19 02:01:06;;;;;;;8.70;5.43;;;16.60;99.90;;;;;;4881128;28;87973;-33
2023/07/19 02:03:31;;;;;;;10.90;6.05;;;16.60;99.90;;;;;;4880329;28;89399;-39
2023/07/19 02:06:00;;;;;;;9.75;5.88;;;16.70;99.90;;;;;;4862842;28;88641;-40
2023/07/19 02:08:27;;;;;;;6.10;5.45;;;16.60;99.90;;;;;;4875669;28;90501;-39
2023/07/19 02:10:53;;;;;;;6.85;5.68;;;16.60;99.90;;;;;;4880755;28;89851;-37
2023/07/19 02:13:19;;;;;;;5.40;4.90;;;16.60;99.90;;;;;;4880567;28;90352;-33
2023/07/19 02:15:45;;;;;;;10.05;6.05;;;16.70;99.90;;;;;;4881006;28;89345;-38
2023/07/19 02:18:11;;;;;;;4.82;4.32;;;16.60;99.90;;;;;;4868528;28;90112;-33
2023/07/19 02:20:36;;;;;;;6.93;5.22;;;16.60;99.90;;;;;;4880629;28;89638;-32
2023/07/19 02:23:02;;;;;;;9.63;5.47;;;16.60;99.90;;;;;;4879232;28;89272;-36
2023/07/19 02:25:28;;;;;;;6.85;5.10;;;16.60;99.90;;;;;;4880429;28;89200;-33
2023/07/19 02:27:53;;;;;;;8.95;5.75;;;16.60;99.90;;;;;;4879512;28;89506;-33
2023/07/19 02:30:19;;;;;;;6.93;5.22;;;16.60;99.90;;;;;;4881460;28;90540;-34
2023/07/19 02:32:44;;;;;;;6.55;5.63;;;16.60;99.90;;;;;;4880524;28;89524;-37
2023/07/19 02:35:10;;;;;;;6.78;5.13;;;16.60;99.90;;;;;;4880332;28;89732;-38
2023/07/19 02:37:36;;;;;;;5.25;4.68;;;16.60;99.90;;;;;;4880896;28;90495;-34
2023/07/19 02:40:01;;;;;;;6.78;5.45;;;16.60;99.90;;;;;;4880378;28;90229;-33
2023/07/19 02:42:27;;;;;;;6.88;5.05;;;16.70;99.90;;;;;;4881064;28;89796;-31
2023/07/19 02:44:52;;;;;;;6.18;5.18;;;16.60;99.90;;;;;;4880463;28;89065;-32
2023/07/19 02:47:18;;;;;;;6.43;5.82;;;16.60;99.90;;;;;;4880974;28;90515;-37
2023/07/19 02:49:44;;;;;;;5.80;5.22;;;16.60;99.90;;;;;;4879461;28;88951;-33
2023/07/19 02:52:09;;;;;;;6.35;5.75;;;16.60;99.90;;;;;;4881237;28;90664;-33
2023/07/19 02:54:35;;;;;;;7.10;5.57;;;16.60;99.90;;;;;;4881279;28;89229;-32
2023/07/19 02:57:01;;;;;;;10.80;6.38;;;16.60;99.90;;;;;;4882678;28;89764;-41
2023/07/19 02:59:27;;;;;;;8.65;5.43;;;16.60;99.90;;;;;;4864697;28;90410;-34
2023/07/19 03:01:52;;;;;;;6.38;5.45;;;16.60;99.90;;;;;;4877936;28;91026;-32
2023/07/19 03:04:18;;;;;;;8.13;5.75;;;16.60;99.90;;;;;;4884493;28;90040;-37
2023/07/19 03:06:43;;;;;;;7.05;6.35;;;16.60;99.90;;;;;;4882814;28;89548;-40
2023/07/19 03:09:11;;;;;;;7.93;6.57;;;16.60;99.90;;;;;;4883742;28;90326;-38
2023/07/19 03:11:36;;;;;;;5.73;5.33;;;16.50;99.90;;;;;;4883722;28;88134;-37
2023/07/19 03:14:02;;;;;;;7.43;6.40;;;16.50;99.90;;;;;;4883466;28;88600;-41
2023/07/19 03:16:28;;;;;;;8.20;6.63;;;16.50;99.90;;;;;;4884285;28;90440;-33
2023/07/19 03:18:53;;;;;;;7.53;5.97;;;16.50;99.90;;;;;;4884507;28;89369;-34
2023/07/19 03:21:20;;;;;;;7.05;6.30;;;16.50;99.90;;;;;;4869403;28;89558;-33
2023/07/19 03:23:46;;;;;;;7.97;6.30;;;16.50;99.90;;;;;;4879845;28;89867;-33
2023/07/19 03:26:11;;;;;;;6.78;6.18;;;16.50;99.90;;;;;;4865475;28;89960;-38
2023/07/19 03:28:37;;;;;;;7.85;7.05;;;16.50;99.90;;;;;;4868787;28;90096;-35
2023/07/19 03:31:02;;;;;;;9.48;8.45;;;16.50;99.90;;;;;;4875872;28;91092;-36
2023/07/19 03:33:28;;;;;;;8.65;7.85;;;16.50;99.90;;;;;;4872899;28;89564;-36
2023/07/19 03:35:54;;;;;;;9.80;7.78;;;16.40;99.90;;;;;;4872300;28;90947;-33
2023/07/19 03:38:20;;;;;;;8.02;7.25;;;16.40;99.90;;;;;;4872641;28;89623;-33
2023/07/19 03:40:46;;;;;;;9.18;8.07;;;16.40;99.90;;;;;;4874224;28;89677;-42
2023/07/19 03:43:12;;;;;;;9.52;6.95;;;16.40;99.90;;;;;;4874281;28;89281;-39
2023/07/19 03:45:39;;;;;;;8.60;7.47;;;16.40;99.90;;;;;;4872182;28;89162;-35
2023/07/19 03:48:05;;;;;;;8.20;7.47;;;16.40;99.90;;;;;;4873355;28;90654;-38
2023/07/19 03:50:30;;;;;;;8.20;7.50;;;16.30;99.90;;;;;;4880301;28;90227;-33
2023/07/19 03:52:56;;;;;;;10.35;7.68;;;16.40;99.90;;;;;;4873893;28;87780;-32
2023/07/19 03:55:23;;;;;;;8.27;7.40;;;16.30;99.90;;;;;;4873950;28;89619;-37
2023/07/19 03:57:48;;;;;;;15.80;7.85;;;16.30;99.90;;;;;;4879490;28;89348;-33
2023/07/19 04:00:14;;;;;;;8.48;7.78;;;16.30;99.90;;;;;;4872313;28;88648;-38
2023/07/19 04:02:40;;;;;;;13.05;9.73;;;16.30;99.90;;;;;;4883666;28;89468;-34
2023/07/19 04:05:06;;;;;;;9.80;8.80;;;16.30;99.90;;;;;;4870237;28;90230;-40
2023/07/19 04:07:31;;;;;;;9.75;8.75;;;16.30;99.90;;;;;;4880681;28;89986;-36
2023/07/19 04:09:57;;;;;;;10.95;9.95;;;16.30;99.90;;;;;;4868908;28;90265;-37
2023/07/19 04:12:23;;;;;;;10.07;8.65;;;16.20;99.90;;;;;;4871165;28;90103;-33
2023/07/19 04:14:48;;;;;;;16.10;9.43;;;16.20;99.90;;;;;;4864274;28;89213;-33
2023/07/19 04:17:14;;;;;;;9.90;8.98;;;16.20;99.90;;;;;;4875760;28;90178;-37
2023/07/19 04:19:39;;;;;;;13.02;10.45;;;16.20;99.90;;;;;;4875940;28;89619;-39
2023/07/19 04:22:05;;;;;;;11.70;9.90;;;16.20;99.90;;;;;;4863233;28;89119;-41
2023/07/19 04:24:31;;;;;;;12.48;10.15;;;16.20;99.90;;;;;;4864914;28;89183;-33
2023/07/19 04:26:57;;;;;;;12.50;10.52;;;16.20;99.90;;;;;;4873068;28;89616;-34
2023/07/19 04:29:22;;;;;;;13.60;9.82;;;16.20;99.90;;;;;;4871891;28;89655;-41
2023/07/19 04:31:48;;;;;;;11.70;10.48;;;16.20;99.90;;;;;;4866806;28;89108;-36
2023/07/19 04:34:14;;;;;;;13.80;11.05;;;16.20;99.90;;;;;;4872607;28;90953;-34
2023/07/19 04:36:41;;;;;;;12.15;10.73;;;16.20;99.90;;;;;;4866009;28;90548;-39
2023/07/19 04:39:06;;;;;;;11.57;10.45;;;16.20;99.90;;;;;;4875967;28;88584;-36
2023/07/19 04:41:32;;;;;;;12.43;11.18;;;16.20;99.90;;;;;;4866680;28;89012;-33
2023/07/19 04:43:58;;;;;;;15.85;11.65;;;16.20;99.90;;;;;;4871817;28;90224;-32
2023/07/19 04:46:24;;;;;;;11.90;10.80;;;16.20;99.90;;;;;;4862901;28;88642;-41
2023/07/19 04:48:50;;;;;;;13.80;11.68;;;16.20;99.90;;;;;;4873426;28;89558;-33
2023/07/19 04:51:15;;;;;;;12.43;10.70;;;16.20;99.90;;;;;;4868254;28;87784;-33
2023/07/19 04:53:41;;;;;;;19.17;11.60;;;16.20;99.90;;;;;;4872040;28;89904;-35
2023/07/19 04:56:07;;;;;;;14.50;11.68;;;16.20;99.90;;;;;;4877817;28;90441;-36
2023/07/19 04:58:32;;;;;;;12.00;10.82;;;16.20;99.90;;;;;;4882489;28;89524;-33
2023/07/19 05:01:05;;;;;;;13.63;12.32;;;16.20;99.90;;;;;;4881496;28;89211;-32
2023/07/19 05:03:31;;;;;;;13.02;11.80;;;16.30;99.90;;;;;;4881038;28;90409;-34
2023/07/19 05:05:56;;;;;;;17.95;11.80;;;16.30;99.90;;;;;;4880670;28;88426;-32
2023/07/19 05:08:22;;;;;;;12.85;11.65;;;16.30;99.90;;;;;;4895192;28;90525;-38
2023/07/19 05:10:48;;;;;;;14.60;12.07;;;16.30;99.90;;;;;;4882080;28;88805;-38
2023/07/19 05:13:14;;;;;;;11.93;10.25;;;16.30;99.90;;;;;;4880216;28;89766;-38
2023/07/19 05:15:39;;;;;;;12.30;11.10;;;16.30;99.90;;;;;;4881677;28;89570;-39
2023/07/19 05:18:05;;;;;;;13.80;12.38;;;16.40;99.90;;;;;;4879082;28;89225;-38
2023/07/19 05:20:31;;;;;;;12.38;11.15;;;16.40;99.90;;;;;;4862243;28;88741;-36
2023/07/19 05:22:57;;;;;;;12.77;11.48;;;16.40;99.90;;;;;;4864081;28;90431;-34
2023/07/19 05:25:23;;;;;;;13.23;11.48;;;16.50;99.90;;;;;;4871753;28;89024;-36
2023/07/19 05:27:49;;;;;;;13.32;10.98;;;16.40;99.90;;;;;;4861571;28;92260;-39
2023/07/19 05:30:15;;;;;;;11.23;9.68;;;16.50;99.90;;;;;;4873671;28;88537;-36
2023/07/19 05:32:40;;;;;;;16.90;9.90;;;16.40;99.90;;;;;;4879117;28;90089;-33
2023/07/19 05:35:06;;;;;;;12.23;11.05;;;16.50;99.90;;;;;;4878101;28;89839;-39
2023/07/19 05:37:32;;;;;;;12.00;10.57;;;16.40;99.90;;;;;;4879497;28;89331;-42
2023/07/19 05:39:57;;;;;;;11.05;9.15;;;16.50;99.90;;;;;;4874328;28;89100;-32
2023/07/19 05:42:23;;;;;;;10.70;9.25;;;16.50;99.90;;;;;;4877436;28;90824;-31
2023/07/19 05:44:49;;;;;;;10.60;9.70;;;16.50;99.90;;;;;;4877554;28;89809;-40
2023/07/19 05:47:14;;;;;;;9.93;8.95;;;16.50;99.90;;;;;;4863458;28;90027;-37
2023/07/19 05:49:40;;;;;;;10.27;9.23;;;16.50;99.90;;;;;;4861522;28;90927;-40
2023/07/19 05:52:07;;;;;;;12.68;9.70;;;16.50;99.90;;;;;;4861988;28;89975;-36
2023/07/19 05:54:33;;;;;;;10.23;8.27;;;16.50;99.90;;;;;;4862835;28;88607;-32
2023/07/19 05:56:59;;;;;;;10.18;9.15;;;16.50;99.90;;;;;;4871047;28;89649;-34
2023/07/19 05:59:24;;;;;;;9.52;8.65;;;16.50;99.90;;;;;;4874875;28;88811;-33
2023/07/19 06:01:50;;;;;;;9.20;8.20;;;16.50;99.90;;;;;;4870985;28;89670;-34
2023/07/19 06:04:16;;;;;;;11.98;8.00;;;16.50;99.90;;;;;;4871986;28;89597;-33
2023/07/19 06:06:41;;;;;;;13.18;9.15;;;16.50;99.90;;;;;;4871248;28;89425;-34
2023/07/19 06:09:08;;;;;;;8.75;7.93;;;16.50;99.90;;;;;;4871702;28;89409;-33
2023/07/19 06:11:35;;;;;;;9.02;8.18;;;16.50;99.90;;;;;;4872059;28;90044;-35
2023/07/19 06:14:01;;;;;;;13.32;9.85;;;16.50;99.90;;;;;;4868696;28;90915;-33
2023/07/19 06:16:27;;;;;;;9.63;8.60;;;16.60;99.90;;;;;;4873050;28;89873;-37
2023/07/19 06:18:53;;;;;;;9.18;8.27;;;16.50;99.90;;;;;;4876634;28;88386;-34
2023/07/19 06:21:19;;;;;;;11.05;8.60;;;16.60;99.90;;;;;;4872743;28;90402;-36
2023/07/19 06:23:44;;;;;;;8.68;7.82;;;16.60;99.90;;;;;;4878065;28;89618;-36
2023/07/19 06:26:10;;;;;;;14.75;9.65;;;16.60;99.90;;;;;;4883690;28;89922;-32
2023/07/19 06:28:36;;;;;;;7.78;6.97;;;16.70;99.90;;;;;;4877435;28;89084;-34
2023/07/19 06:31:02;;;;;;;6.72;6.22;;;16.70;99.90;;;;;;4868832;28;90008;-40
2023/07/19 06:33:29;;;;;;;7.88;6.25;;;16.70;99.90;;;;;;4878308;28;90062;-37
2023/07/19 06:35:55;;;;;;;8.70;6.80;;;16.70;99.90;;;;;;4882888;28;90180;-36
2023/07/19 06:38:21;;;;;;;10.43;6.32;;;16.70;99.90;;;;;;4881764;28;89976;-36
2023/07/19 06:40:46;;;;;;;8.52;6.30;;;16.70;99.90;;;;;;4871771;28;90183;-36
2023/07/19 06:43:12;;;;;;;8.48;5.15;;;16.70;99.90;;;;;;4872816;28;88509;-31
2023/07/19 06:45:38;;;;;;;6.38;5.50;;;16.70;99.90;;;;;;4875667;28;88045;-42
2023/07/19 06:48:03;;;;;;;8.68;5.35;;;16.70;99.90;;;;;;4876148;28;89151;-31
2023/07/19 06:50:29;;;;;;;7.00;4.85;;;16.70;99.90;;;;;;4871205;28;90437;-36
2023/07/19 06:52:55;;;;;;;5.55;4.60;;;16.80;99.90;;;;;;4872671;28;90284;-34
2023/07/19 06:55:20;;;;;;;6.82;4.15;;;16.80;99.90;;;;;;4879871;28;90647;-33
2023/07/19 06:57:46;;;;;;;8.50;3.70;;;16.70;99.90;;;;;;4875444;28;89969;-41
2023/07/19 07:00:12;;;;;;;5.45;3.20;;;16.70;99.90;;;;;;4871323;28;89769;-36
2023/07/19 07:02:38;;;;;;;6.22;3.78;;;16.70;99.90;;;;;;4877757;28;91117;-33
2023/07/19 07:05:05;;;;;;;4.35;3.63;;;16.80;99.90;;;;;;4876984;28;90602;-37
2023/07/19 07:07:31;;;;;;;4.70;3.63;;;16.90;99.90;;;;;;4878623;28;89733;-35
2023/07/19 07:09:58;;;;;;;6.10;3.75;;;17.00;99.90;;;;;;4872034;28;89666;-41
2023/07/19 07:12:24;;;;;;;5.53;3.08;;;17.00;99.90;;;;;;4877125;28;91144;-33
2023/07/19 07:14:49;;;;;;;5.53;3.63;;;17.00;99.90;;;;;;4879197;28;89765;-39
2023/07/19 07:17:15;;;;;;;4.32;3.35;;;17.10;99.90;;;;;;4877220;28;88547;-38
2023/07/19 07:19:41;;;;;;;4.90;3.70;;;17.30;99.90;;;;;;4872827;28;91666;-31
2023/07/19 07:22:06;;;;;;;4.55;3.20;;;17.40;99.90;;;;;;4877362;28;90007;-37
2023/07/19 07:24:32;;;;;;;5.75;3.30;;;17.50;99.90;;;;;;4877927;28;89200;-38
2023/07/19 07:26:58;;;;;;;4.57;3.40;;;17.60;99.90;;;;;;4875513;28;89170;-38
2023/07/19 07:29:23;;;;;;;3.72;3.30;;;17.60;99.90;;;;;;4882639;28;90730;-37
2023/07/19 07:31:49;;;;;;;5.18;3.42;;;17.60;99.90;;;;;;4875106;28;92120;-34
2023/07/19 07:34:15;;;;;;;3.17;2.88;;;17.70;99.90;;;;;;4873100;28;89687;-34
2023/07/19 07:36:41;;;;;;;3.35;3.05;;;17.80;99.90;;;;;;4871095;28;90032;-34
2023/07/19 07:39:06;;;;;;;4.72;3.30;;;17.90;99.90;;;;;;4882688;28;90010;-37
2023/07/19 07:41:34;;;;;;;5.97;2.90;;;18.00;99.90;;;;;;4882476;28;90696;-33
2023/07/19 07:43:59;;;;;;;3.17;2.47;;;18.00;99.90;;;;;;4883452;28;89784;-33
2023/07/19 07:46:27;;;;;;;4.00;2.80;;;18.00;99.90;;;;;;4882562;28;89098;-35
2023/07/19 07:48:54;;;;;;;3.30;3.00;;;18.00;99.90;;;;;;4884146;28;90360;-42
2023/07/19 07:51:20;;;;;;;5.30;3.08;;;18.00;99.90;;;;;;4881772;28;89230;-32
2023/07/19 07:53:45;;;;;;;2.95;2.15;;;18.00;99.90;;;;;;4880461;28;90504;-34
2023/07/19 07:56:11;;;;;;;4.03;3.15;;;18.10;99.90;;;;;;4882439;28;89178;-32
2023/07/19 07:58:37;;;;;;;4.35;2.88;;;18.10;99.90;;;;;;4881717;28;90270;-37
2023/07/19 08:01:02;;;;;;;5.47;3.33;;;18.10;99.90;;;;;;4883129;28;89592;-43
2023/07/19 08:03:28;;;;;;;3.70;2.88;;;18.20;99.90;;;;;;4883018;28;88932;-35
2023/07/19 08:05:54;;;;;;;6.57;3.28;;;18.20;99.90;;;;;;4905343;23;88970;-36
2023/07/19 08:08:19;;;;;;;5.07;2.72;;;18.30;99.90;;;;;;4863778;28;90814;-31
2023/07/19 08:10:45;;;;;;;5.03;3.10;;;18.30;99.90;;;;;;4864224;28;90064;-33
2023/07/19 08:13:11;;;;;;;3.53;2.47;;;18.40;99.90;;;;;;4864307;28;90013;-36
2023/07/19 08:15:37;;;;;;;4.95;3.00;;;18.40;99.90;;;;;;4864030;28;88661;-30
2023/07/19 08:18:02;;;;;;;4.43;3.10;;;18.50;99.90;;;;;;4849982;28;91219;-42
2023/07/19 08:20:29;;;;;;;3.60;3.30;;;18.50;99.90;;;;;;4852530;28;89529;-34
2023/07/19 08:22:55;;;;;;;3.33;2.42;;;18.50;99.90;;;;;;4863454;28;89515;-41
2023/07/19 08:25:21;;;;;;;5.40;2.80;;;18.60;99.90;;;;;;4863627;28;88976;-33
2023/07/19 08:27:47;;;;;;;3.42;3.10;;;18.50;99.90;;;;;;4862582;28;90511;-38
2023/07/19 08:30:16;;;;;;;6.25;2.65;;;18.60;99.90;;;;;;4859924;28;89686;-34
2023/07/19 08:32:45;;;;;;;4.32;3.13;;;18.70;99.90;;;;;;4850361;28;89259;-31
2023/07/19 08:35:12;;;;;;;3.72;3.00;;;18.70;99.90;;;;;;4854515;28;89861;-41
2023/07/19 08:37:38;;;;;;;3.35;3.05;;;18.60;99.90;;;;;;4856234;28;91221;-32
2023/07/19 08:40:04;;;;;;;4.40;3.05;;;18.70;99.90;;;;;;4858393;28;90751;-33
2023/07/19 08:42:31;;;;;;;3.75;2.95;;;18.60;99.90;;;;;;4851041;28;89546;-39
2023/07/19 08:44:57;;;;;;;4.68;3.10;;;18.70;99.90;;;;;;4863899;28;89630;-32
2023/07/19 08:47:23;;;;;;;3.80;3.00;;;18.80;99.90;;;;;;4854643;28;90693;-37
2023/07/19 08:49:51;;;;;;;5.70;2.75;;;18.80;99.90;;;;;;4858641;28;89649;-33
2023/07/19 08:52:17;;;;;;;5.13;3.15;;;18.90;99.90;;;;;;4851674;28;88786;-36
2023/07/19 08:54:43;;;;;;;4.25;3.10;;;18.70;99.90;;;;;;4848867;28;89057;-36
2023/07/19 08:57:09;;;;;;;3.78;2.92;;;18.70;99.90;;;;;;4851581;28;90923;-35
2023/07/19 08:59:34;;;;;;;3.47;2.33;;;18.90;99.90;;;;;;4849512;28;90955;-35
2023/07/19 09:02:00;;;;;;;3.88;3.25;;;19.00;99.90;;;;;;4860374;28;89253;-34
2023/07/19 09:04:26;;;;;;;8.10;2.55;;;19.00;99.90;;;;;;4861738;28;89788;-36
2023/07/19 09:06:52;;;;;;;2.80;2.60;;;19.10;99.90;;;;;;4847782;28;90204;-33
2023/07/19 09:09:18;;;;;;;3.30;1.77;;;19.10;99.90;;;;;;4852450;28;89864;-39
2023/07/19 09:11:49;;;;;;;3.33;2.17;;;19.10;99.90;;;;;;4850828;28;90475;-36
2023/07/19 09:14:15;;;;;;;4.03;2.08;;;19.20;99.90;;;;;;4862838;28;88265;-39
2023/07/19 09:16:40;;;;;;;5.03;2.53;;;19.20;99.90;;;;;;4862782;28;90210;-37
2023/07/19 09:19:08;;;;;;;3.22;1.98;;;19.20;99.90;;;;;;4862998;28;89948;-36
2023/07/19 09:21:44;;;;;;;2.53;2.13;;;19.30;99.90;;;;;;4863084;28;90126;-32
2023/07/19 09:24:11;;;;;;;4.90;2.60;;;19.30;99.90;;;;;;4862769;28;89605;-37
2023/07/19 09:26:44;;;;;;;5.35;1.98;;;19.20;99.90;;;;;;4862844;28;89248;-42
2023/07/19 09:29:11;;;;;;;4.85;3.20;;;19.30;99.90;;;;;;4862941;28;90229;-37
2023/07/19 09:31:53;;;;;;;2.33;1.83;;;19.10;99.90;;;;;;4848715;28;90196;-32
2023/07/19 09:34:44;;;;;;;3.17;2.88;;;19.10;99.90;;;;;;4844261;28;89052;-34
2023/07/19 09:37:10;;;;;;;2.22;2.03;;;19.10;99.90;;;;;;4844225;28;90308;-39
2023/07/19 09:39:36;;;;;;;2.35;2.03;;;19.10;99.90;;;;;;4843869;28;89860;-33
2023/07/19 09:42:03;;;;;;;2.75;2.55;;;19.00;99.90;;;;;;4843772;28;88594;-37
2023/07/19 09:44:30;;;;;;;4.32;3.40;;;18.90;99.90;;;;;;4844060;28;89628;-35
2023/07/19 09:46:57;;;;;;;5.47;2.70;;;18.90;99.90;;;;;;4844359;28;90148;-34
2023/07/19 09:49:25;;;;;;;3.13;2.75;;;18.90;99.90;;;;;;4843452;28;89483;-33
2023/07/19 09:51:54;;;;;;;2.35;2.15;;;19.10;99.90;;;;;;4851759;28;89786;-34
2023/07/19 09:54:21;;;;;;;2.20;2.00;;;19.10;99.90;;;;;;4846633;28;90250;-35
2023/07/19 09:56:47;;;;;;;2.15;1.92;;;19.10;99.90;;;;;;4843775;28;90322;-32
2023/07/19 09:59:34;;;;;;;2.53;2.00;;;19.10;99.90;;;;;;4842938;28;89126;-31
2023/07/19 10:02:01;;;;;;;3.67;1.97;;;19.20;99.90;;;;;;4848541;28;90107;-43
2023/07/19 10:04:28;;;;;;;3.83;2.50;;;19.20;99.90;;;;;;4849251;28;89393;-37
2023/07/19 10:07:20;;;;;;;3.47;2.07;;;19.20;99.90;;;;;;4860129;28;91604;-32
2023/07/19 10:09:59;;;;;;;2.63;1.63;;;19.30;99.90;;;;;;4859147;28;89342;-44
2023/07/19 10:12:24;;;;;;;2.70;2.10;;;19.40;99.90;;;;;;4848514;28;89892;-38
2023/07/19 10:15:00;;;;;;;5.57;1.98;;;19.50;99.90;;;;;;4857542;28;88713;-35
2023/07/19 10:17:26;;;;;;;3.80;2.70;;;19.40;99.90;;;;;;4853794;28;90557;-33
2023/07/19 10:20:08;;;;;;;2.42;1.92;;;19.30;99.90;;;;;;4853592;28;90989;-32
2023/07/19 10:22:56;;;;;;;2.78;2.22;;;19.30;99.90;;;;;;4850176;28;90580;-40
2023/07/19 10:25:34;;;;;;;5.18;2.72;;;19.40;99.90;;;;;;4849937;28;88803;-40
2023/07/19 10:28:02;;;;;;;7.82;2.78;;;19.30;99.90;;;;;;4858458;28;90011;-36
2023/07/19 10:30:46;;;;;;;8.18;2.17;;;19.30;99.90;;;;;;4858967;28;89779;-37
2023/07/19 10:33:16;;;;;;;2.42;2.13;;;19.50;99.90;;;;;;4856615;28;89480;-33
2023/07/19 10:35:43;;;;;;;4.40;1.70;;;19.80;99.90;;;;;;4852680;28;88628;-35
2023/07/19 10:38:16;;;;;;;2.47;1.70;;;20.20;99.90;;;;;;4862962;28;90095;-41
2023/07/19 10:40:54;;;;;;;4.43;2.58;;;20.20;99.90;;;;;;4862961;28;90975;-34
2023/07/19 10:43:21;;;;;;;3.83;1.65;;;20.10;99.90;;;;;;4862671;28;89684;-40
2023/07/19 10:45:46;;;;;;;2.78;1.75;;;20.20;99.90;;;;;;4862774;28;89735;-34
2023/07/19 10:48:12;;;;;;;3.72;1.90;;;20.30;99.90;;;;;;4862375;28;90924;-34
2023/07/19 10:50:38;;;;;;;5.25;2.40;;;20.50;99.90;;;;;;4862534;28;89486;-34
2023/07/19 10:53:06;;;;;;;4.90;2.22;;;20.60;99.90;;;;;;4862747;28;90026;-39
2023/07/19 10:55:31;;;;;;;2.60;2.40;;;20.70;99.90;;;;;;4863768;28;87667;-32
2023/07/19 10:57:57;;;;;;;4.00;2.33;;;20.60;99.90;;;;;;4851238;28;89828;-34
2023/07/19 11:00:23;;;;;;;5.95;2.42;;;20.50;99.90;;;;;;4849499;28;89142;-33
2023/07/19 11:02:51;;;;;;;2.65;2.03;;;20.40;99.90;;;;;;4856968;28;90063;-34
2023/07/19 11:05:16;;;;;;;1.83;1.73;;;20.50;99.90;;;;;;4862688;28;89285;-35
2023/07/19 11:07:42;;;;;;;2.75;2.10;;;20.50;99.90;;;;;;4861849;28;90225;-36
2023/07/19 11:10:09;;;;;;;1.95;1.63;;;20.60;99.90;;;;;;4861202;28;90542;-36
2023/07/19 11:12:34;;;;;;;2.55;2.30;;;20.70;99.90;;;;;;4862010;28;89917;-38
2023/07/19 11:15:01;;;;;;;2.95;2.10;;;20.80;99.90;;;;;;4863287;28;88502;-34
2023/07/19 11:17:30;;;;;;;2.20;2.00;;;20.90;99.90;;;;;;4861470;28;89803;-40
2023/07/19 11:19:58;;;;;;;6.57;2.38;;;20.90;99.90;;;;;;4854747;28;89850;-34
2023/07/19 11:22:25;;;;;;;2.35;2.15;;;20.90;99.90;;;;;;4861884;28;90113;-37
2023/07/19 11:24:53;;;;;;;3.50;2.20;;;20.80;99.90;;;;;;4863309;28;89195;-39
2023/07/19 11:27:20;;;;;;;9.25;2.35;;;20.30;99.90;;;;;;4862139;28;90548;-33
2023/07/19 11:29:50;;;;;;;3.20;2.17;;;20.30;99.90;;;;;;4857580;28;90144;-33
2023/07/19 11:32:20;;;;;;;2.05;1.83;;;20.20;99.90;;;;;;4861762;28;89808;-37
2023/07/19 11:34:46;;;;;;;2.67;1.63;;;20.20;99.90;;;;;;4862155;28;89680;-36
2023/07/19 11:37:17;;;;;;;2.38;2.08;;;20.00;99.90;;;;;;4862152;28;90179;-34
2023/07/19 11:39:43;;;;;;;6.53;3.20;;;19.80;99.90;;;;;;4861030;28;90443;-37
2023/07/19 11:42:08;;;;;;;3.33;2.03;;;19.40;99.90;;;;;;4858074;28;89765;-37
2023/07/19 11:44:42;;;;;;;3.17;1.67;;;19.20;99.90;;;;;;4856420;28;88106;-41
2023/07/19 11:47:07;;;;;;;2.00;1.90;;;19.30;99.90;;;;;;4861240;28;90239;-39
2023/07/19 11:49:33;;;;;;;2.80;1.63;;;19.30;99.90;;;;;;4861011;28;89368;-40
2023/07/19 11:51:59;;;;;;;2.15;1.55;;;19.20;99.90;;;;;;4862021;28;89610;-35
2023/07/19 11:54:24;;;;;;;2.20;1.65;;;19.30;99.90;;;;;;4861576;28;89843;-37
2023/07/19 11:56:50;;;;;;;2.40;1.70;;;19.30;99.90;;;;;;4861708;28;90261;-36
2023/07/19 11:59:15;;;;;;;3.13;1.98;;;19.30;99.90;;;;;;4859956;28;92205;-33
2023/07/19 12:01:42;;;;;;;1.60;1.50;;;19.20;99.90;;;;;;4858500;28;90131;-35
2023/07/19 12:04:08;;;;;;;1.92;1.80;;;19.20;99.90;;;;;;4861577;28;88913;-35
2023/07/19 12:06:34;;;;;;;3.00;1.83;;;19.40;99.90;;;;;;4860013;28;90289;-34
2023/07/19 12:08:59;;;;;;;2.78;2.53;;;19.50;99.90;;;;;;4861002;28;89762;-37
2023/07/19 12:11:25;;;;;;;2.20;2.05;;;19.80;99.90;;;;;;4859691;28;89427;-34
2023/07/19 12:13:51;;;;;;;2.92;1.98;;;20.00;99.90;;;;;;4861391;28;89511;-38
2023/07/19 12:16:17;;;;;;;3.30;1.90;;;20.20;99.90;;;;;;4861062;28;89683;-33
2023/07/19 12:18:42;;;;;;;3.42;1.92;;;20.00;99.90;;;;;;4849738;28;88490;-32
2023/07/19 12:21:08;;;;;;;2.85;1.75;;;20.10;99.90;;;;;;4842059;28;89687;-41
2023/07/19 12:23:34;;;;;;;2.50;2.10;;;20.30;99.90;;;;;;4853772;28;90527;-34
2023/07/19 12:25:59;;;;;;;2.67;2.03;;;20.30;99.90;;;;;;4847572;28;89860;-37
2023/07/19 12:28:25;;;;;;;3.40;2.00;;;20.30;99.90;;;;;;4849909;28;90324;-31
2023/07/19 12:30:51;;;;;;;2.08;1.95;;;20.40;99.90;;;;;;4847214;28;89319;-37
2023/07/19 12:33:17;;;;;;;2.70;2.33;;;20.40;99.90;;;;;;4849582;28;88569;-36
2023/07/19 12:35:46;;;;;;;2.30;1.77;;;20.30;99.90;;;;;;4842920;28;89655;-34
2023/07/19 12:38:13;;;;;;;1.83;1.58;;;20.50;99.90;;;;;;4842580;28;90151;-36
2023/07/19 12:40:39;;;;;;;2.33;2.05;;;20.40;99.90;;;;;;4843108;28;89930;-37